Vue régionale

METAR et TAF

Lundi 18 février 2019 à 15h25

Visibilités horizontales observées à différents aéroports. Les observations (METAR) et prévisions aéronautiques (TAF) complètes sont disponibles en cliquant sur l’icône correspondante.

  • Luxemburg (ELLX)

    Taf: TAF ELLX 181100Z 1812/1918 18007KT CAVOK TEMPO 1821/1908 4500 BR BKN008 PROB30 TEMPO 1900/1907 2500 -DZ BR BKN004 BECMG 1908/1911 27010KT=

    Metar: METAR ELLX 181350Z 18009KT CAVOK 12/02 Q1018 NOSIG=

  • Spangdahlem (ETAD)

    Taf: TAF ETAD 181300Z 1813/1919 22009KT 9999 SKC QNH3000INS BECMG 1901/1902 23008KT 9999 SCT005 BKN010 OVC030 QNH2999INS TEMPO 1906/1911 27008KT 5000 -RA BR BKN005 OVC010 BECMG 1911/1912 27010G15KT 9999 BKN030 QNH3005INS TX12/1815Z TN02/1902Z=

    Metar: nil

  • Metz/Nancy (LFJL)

    Taf: TAF LFJL 181100Z 1812/1912 20010KT CAVOK BECMG 1823/1902 BKN030 TEMPO 1908/1912 -RA BKN012=

    Metar: nil

  • Saarbrücken/Intl (EDDR)

    Taf: TAF EDDR 181100Z 1812/1912 22007KT CAVOK PROB30 TEMPO 1908/1912 BKN014=

    Metar: nil

  • Hahn (EDFH)

    Taf: TAF EDFH 181100Z 1812/1912 19006KT CAVOK BECMG 1822/1824 25008KT PROB30 TEMPO 1907/1912 BKN012=

    Metar: nil

  • Ramstein (ETAR)

    Taf: TAF AMD ETAR 181321Z 1813/1916 26009KT 9999 SKC QNH3004INS BECMG 1822/1823 23009KT 9999 SCT025 QNH2999INS BECMG 1903/1904 23009KT 9999 BKN030 QNH2996INS BECMG 1908/1909 23009KT 8000 SHRA BKN020 QNH2994INS BECMG 1912/1913 28009KT 9999 NSW SCT020 BKN030 QNH2990INS TX15/1814Z TN02/1904Z=

    Metar: nil

  • Nancy/Ochey (LFSO)

    Taf: TAF LFSO 181400Z 1815/1915 21012KT CAVOK BECMG 1905/1907 BKN013 OVC020 TEMPO 1906/1912 4500 -RA BKN008 OVC010 BECMG 1913/1915 BKN030=

    Metar: nil

  • Liège Bierset (EBLG)

    Taf: TAF EBLG 181100Z 1812/1918 19008KT CAVOK TEMPO 1902/1906 4500 -RADZ BKN009 BECMG 1908/1910 25010KT=

    Metar: nil

  • Saint-Dizier (LFSI)

    Taf: TAF LFSI 181400Z 1815/1915 21010KT CAVOK BECMG 1816/1818 15005KT BECMG 1906/1908 21010KT BKN010 BKN020 BKN030 TEMPO 1909/1913 BKN005 BKN010 BKN040 BECMG 1913/1915 SCT015=

    Metar: nil

  • Maastricht/Zuid Limburg (EHBK)

    Taf: TAF EHBK 181120Z 1812/1918 21007KT CAVOK BECMG 1901/1903 7000 -RADZ BKN012 BECMG 1903/1906 9999 NSW PROB40 1903/1908 4000 BR -DZ BKN007 BECMG 1907/1910 25012KT BKN020 BECMG 1915/1918 22006KT=

    Metar: nil

  • Köln/Köln-Bonn (EDDK)

    Taf: TAF EDDK 181100Z 1812/1918 14007KT CAVOK BECMG 1904/1907 20006KT BECMG 1910/1913 26008KT=

    Metar: METAR EDDK 181350Z 13007KT 090V180 CAVOK 17/02 Q1016 NOSIG=

  • Charleroi (EBCI)

    Taf: TAF EBCI 181100Z 1812/1918 19008KT CAVOK TEMPO 1901/1905 4500 -RADZ BKN007 BECMG 1907/1909 25010KT=

    Metar: nil

  • Karlsruhe/Baden-Baden (EDSB)

    Taf: TAF EDSB 181100Z 1812/1912 VRB03KT CAVOK BECMG 1823/1901 22006KT=

    Metar: nil

  • Chalons/Vatry (LFOK)

    Taf: TAF LFOK 181100Z 1812/1912 20010KT CAVOK FM190400 24007KT 9999 BKN020 TEMPO 1905/1910 4000 -RA BKN006 BKN020=

    Metar: nil

  • Brüssel (EBBR)

    Taf: TAF EBBR 181100Z 1812/1918 19008KT CAVOK TEMPO 1901/1903 4500 -RADZ SCT006 BKN011 BECMG 1907/1909 25010KT=

    Metar: METAR EBBR 181350Z 24003KT 200V270 CAVOK 15/04 Q1016 NOSIG=

  • Düsseldorf (EDDL)

    Taf: TAF EDDL 181100Z 1812/1918 17008KT CAVOK BECMG 1903/1906 23009KT PROB30 TEMPO 1904/1907 4000 -RA BKN012=

    Metar: nil

  • Luxeuil (LFSX)

    Taf: TAF LFSX 181400Z 1815/1915 20009KT CAVOK=

    Metar: nil

  • Eindhoven (EHEH)

    Taf: TAF EHEH 181152Z 1812/1918 19007KT CAVOK TEMPO 1900/1906 4000 RA SCT016 BKN018 OVC025 PROB30 1900/1904 SCT012 PROB40 TEMPO 1904/1906 SCT008 BKN012 PROB30 TEMPO 1906/1914 BKN012 BECMG 1909/1912 24013KT SCT020=

    Metar: nil

  • Niederrhein (EDLV)

    Taf: TAF EDLV 181100Z 1812/1912 18006KT CAVOK BECMG 1900/1903 BKN012 BECMG 1902/1905 25011KT PROB40 TEMPO 1902/1906 4000 -RA BKN007 BECMG 1909/1912 SCT012=

    Metar: nil

  • Dortmund/Wickede (EDLW)

    Taf: TAF EDLW 181100Z 1812/1912 20006KT CAVOK BECMG 1819/1822 23011KT PROB30 TEMPO 1904/1906 4500 -RA BKN013=

    Metar: nil

  • Stuttgart/Echterdingen (EDDS)

    Taf: TAF EDDS 181100Z 1812/1912 VRB03KT CAVOK=

    Metar: METAR EDDS 181350Z VRB02KT CAVOK 15/M03 Q1019 NOSIG=

  • Basel-Mühlhausen (LFSB)

    Taf: TAF LFSB 181100Z 1812/1912 18005KT CAVOK TEMPO 1905/1912 BKN030=

    Metar: METAR LFSB 181400Z 27004KT 230V350 CAVOK 16/02 Q1019 NOSIG=

  • Lille (LFQQ)

    Taf: TAF LFQQ 181100Z 1812/1918 18008KT CAVOK FM182000 24008KT 9999 BKN020 TEMPO 1820/1823 RA BKN007 BKN020 TEMPO 1900/1910 BKN006=

    Metar: nil

  • Paris/Charles de Gaulle (LFPG)

    Taf: TAF LFPG 181100Z 1812/1918 20008KT CAVOK TX14/1813Z TN06/1905Z PROB40 TEMPO 1906/1911 BKN012 PROB30 TEMPO 1906/1910 BKN006=

    Metar: nil

  • Paderborn/Lippstadt (EDLP)

    Taf: TAF EDLP 181100Z 1812/1912 18006KT CAVOK BECMG 1822/1902 25011KT=

    Metar: nil

  • Paris/Le Bourget (LFPB)

    Taf: TAF LFPB 181100Z 1812/1912 20008KT CAVOK PROB40 TEMPO 1906/1911 BKN012 PROB30 TEMPO 1906/1910 BKN006=

    Metar: METAR LFPB 181400Z AUTO 17012KT CAVOK 15/03 Q1016 NOSIG=

  • Rotterdam (EHRD)

    Taf: TAF EHRD 181109Z 1812/1918 20008KT CAVOK BECMG 1821/1822 7000 RA SCT018 BKN025 PROB30 TEMPO 1822/1901 4500 -RADZ BR SCT008 BKN014 BECMG 1900/1903 24012KT 9999 NSW PROB30 1907/1912 SCT007 BKN012 TEMPO 1909/1915 25017KT=

    Metar: nil

  • Zürich/Kloten (LSZH)

    Taf: TAF LSZH 181125Z 1812/1918 VRB03KT CAVOK TX14/1815Z TNM03/1905Z TX12/1915Z BECMG 1902/1905 7000 NSC PROB40 1904/1908 4000 MIFG BECMG 1908/1911 CAVOK=

    Metar: METAR LSZH 181350Z VRB01KT CAVOK 13/01 Q1019 NOSIG=

  • Oostende/Intl (EBOS)

    Taf: TAF EBOS 181100Z 1812/1918 18009KT CAVOK TEMPO 1817/1821 SCT010 BKN014 BECMG 1821/1823 24012KT=

    Metar: nil

  • Paris/Orly (LFPO)

    Taf: TAF LFPO 181100Z 1812/1918 21008KT CAVOK BECMG 1818/1821 BKN030 PROB40 TEMPO 1901/1904 30010KT 4000 -RA PROB30 TEMPO 1905/1910 0800 BCFG BKN008 BECMG 1910/1912 SCT025=

    Metar: nil

  • Beauvais (LFOB)

    Taf: TAF LFOB 181100Z 1812/1912 18007KT CAVOK FM181800 22008KT 9999 BKN020 TEMPO 1821/1901 -RA BKN006 BKN020 BECMG 1902/1905 4000 BR BKN005 PROB40 1905/1908 0500 FG VV/// BECMG 1909/1912 9999 NSW BKN020=

    Metar: nil

  • Münster/Intl (EDDG)

    Taf: TAF EDDG 181100Z 1812/1912 14004KT CAVOK BECMG 1812/1815 20006KT BECMG 1901/1904 BKN012 PROB40 TEMPO 1902/1906 4000 -RA BKN007 BECMG 1909/1912 SCT012=

    Metar: METAR EDDG 181350Z 18007KT 140V210 CAVOK 16/01 Q1016 NOSIG=

  • Duebendorf (LSMD)

    Taf: TAF LSMD 180925Z 1810/1916 VRB03KT CAVOK BECMG 1902/1905 7000 NSC PROB40 1904/1908 4000 MIFG BECMG 1908/1911 CAVOK=

    Metar: nil

  • Villacoublay (LFPV)

    Taf: TAF LFPV 181400Z 1815/1915 20008KT CAVOK BECMG 1822/1824 BKN006 TEMPO 1900/1904 -RA BECMG 1909/1911 BKN030=

    Metar: nil

  • Payerne (LSMP)

    Taf: TAF LSMP 180925Z 1810/1916 VRB02KT CAVOK TEMPO 1904/1909 7000 NSC=

    Metar: nil

  • Amsterdam/Schipol (EHAM)

    Taf: TAF EHAM 181109Z 1812/1918 20008KT CAVOK BECMG 1821/1822 7000 RA SCT018 BKN025 PROB30 TEMPO 1822/1901 4500 -RADZ BR SCT008 BKN014 BECMG 1900/1903 24012KT 9999 NSW PROB30 1907/1912 SCT007 BKN012 TEMPO 1909/1915 25017KT=

    Metar: METAR EHAM 181355Z 26006KT 210V290 9999 FEW021 13/08 Q1015 NOSIG=

  • Emmen (LSME)

    Taf: TAF LSME 180925Z 1810/1916 VRB03KT CAVOK PROB40 1903/1908 5000 BR NSC=

    Metar: nil

  • Friedrichshafen (EDNY)

    Taf: TAF EDNY 181100Z 1812/1912 VRB02KT CAVOK PROB30 TEMPO 1900/1908 2000 BCFG=

    Metar: nil

  • Alpnach (LSMA)

    Taf: TAF LSMA 180925Z 1810/1916 VRB03KT CAVOK=

    Metar: nil

  • Meiringen (LSMM)

    Taf: TAF LSMM 180925Z 1810/1916 VRB03KT CAVOK=

    Metar: nil

  • Nürnberg (EDDN)

    Taf: TAF EDDN 181100Z 1812/1912 14004KT CAVOK BECMG 1910/1912 25005KT=

    Metar: METAR EDDN 181350Z VRB01KT CAVOK 15/M01 Q1019 NOSIG=

  • Rouen (LFOP)

    Taf: TAF LFOP 181100Z 1812/1912 18008KT CAVOK FM181600 24007KT 9999 BKN020 TEMPO 1818/1821 -RA BKN007 BKN020 BECMG 1901/1903 4000 BR BKN005 PROB40 TEMPO 1905/1909 0500 FG VV/// BECMG 1909/1912 9999 NSW SCT015=

    Metar: nil

  • Evreux (LFOE)

    Taf: TAF LFOE 181400Z 1815/1915 20012KT CAVOK BECMG 1818/1820 BKN015 TEMPO 1820/1903 5000 -RA BKN007 BKN012 BECMG 1903/1905 2000 BR OVC002 TEMPO 1905/1908 0400 FG VV/// BECMG 1908/1910 6000 NSW BECMG 1910/1912 SCT025=

    Metar: nil

  • Erfurt/Bindersleben (EDDE)

    Taf: TAF EDDE 181100Z 1812/1912 23005KT CAVOK BECMG 1817/1819 23010KT=

    Metar: nil